sensor_id;sensor_type;location;lat;lon;timestamp;P1;durP1;ratioP1;P2;durP2;ratioP2
10244;SDS011;5167;52.164;10.530;2023-02-15T00:02:25;64.47;;;18.10;;
10244;SDS011;5167;52.164;10.530;2023-02-15T00:04:51;51.80;;;18.50;;
10244;SDS011;5167;52.164;10.530;2023-02-15T00:07:17;59.10;;;17.03;;
10244;SDS011;5167;52.164;10.530;2023-02-15T00:09:45;45.23;;;16.63;;
10244;SDS011;5167;52.164;10.530;2023-02-15T00:12:11;45.73;;;16.57;;
10244;SDS011;5167;52.164;10.530;2023-02-15T00:14:36;41.93;;;16.20;;
10244;SDS011;5167;52.164;10.530;2023-02-15T00:17:02;50.33;;;16.63;;
10244;SDS011;5167;52.164;10.530;2023-02-15T00:19:27;52.53;;;17.27;;
10244;SDS011;5167;52.164;10.530;2023-02-15T00:21:53;54.30;;;16.70;;
10244;SDS011;5167;52.164;10.530;2023-02-15T00:24:18;41.47;;;16.30;;
10244;SDS011;5167;52.164;10.530;2023-02-15T00:26:44;91.23;;;17.77;;
10244;SDS011;5167;52.164;10.530;2023-02-15T00:29:12;73.30;;;17.83;;
10244;SDS011;5167;52.164;10.530;2023-02-15T00:31:38;61.07;;;16.23;;
10244;SDS011;5167;52.164;10.530;2023-02-15T00:34:10;46.43;;;16.63;;
10244;SDS011;5167;52.164;10.530;2023-02-15T00:36:37;43.80;;;16.77;;
10244;SDS011;5167;52.164;10.530;2023-02-15T00:39:03;63.50;;;16.53;;
10244;SDS011;5167;52.164;10.530;2023-02-15T00:41:29;65.80;;;17.53;;
10244;SDS011;5167;52.164;10.530;2023-02-15T00:43:55;60.17;;;16.27;;
10244;SDS011;5167;52.164;10.530;2023-02-15T00:46:21;49.60;;;16.63;;
10244;SDS011;5167;52.164;10.530;2023-02-15T00:48:46;43.97;;;17.10;;
10244;SDS011;5167;52.164;10.530;2023-02-15T00:51:12;46.57;;;16.60;;
10244;SDS011;5167;52.164;10.530;2023-02-15T00:53:37;39.30;;;15.83;;
10244;SDS011;5167;52.164;10.530;2023-02-15T00:56:03;38.33;;;15.43;;
10244;SDS011;5167;52.164;10.530;2023-02-15T00:58:28;47.33;;;14.87;;
10244;SDS011;5167;52.164;10.530;2023-02-15T01:00:54;32.53;;;14.47;;
10244;SDS011;5167;52.164;10.530;2023-02-15T01:03:20;62.63;;;15.17;;
10244;SDS011;5167;52.164;10.530;2023-02-15T01:05:46;42.70;;;14.57;;
10244;SDS011;5167;52.164;10.530;2023-02-15T01:08:13;33.50;;;14.00;;
10244;SDS011;5167;52.164;10.530;2023-02-15T01:10:38;68.90;;;15.30;;
10244;SDS011;5167;52.164;10.530;2023-02-15T01:13:04;35.50;;;12.63;;
10244;SDS011;5167;52.164;10.530;2023-02-15T01:15:29;40.73;;;12.67;;
10244;SDS011;5167;52.164;10.530;2023-02-15T01:17:55;36.27;;;12.67;;
10244;SDS011;5167;52.164;10.530;2023-02-15T01:20:24;28.63;;;13.07;;
10244;SDS011;5167;52.164;10.530;2023-02-15T01:22:54;40.57;;;12.77;;
10244;SDS011;5167;52.164;10.530;2023-02-15T01:25:20;45.97;;;12.60;;
10244;SDS011;5167;52.164;10.530;2023-02-15T01:27:47;23.47;;;12.37;;
10244;SDS011;5167;52.164;10.530;2023-02-15T01:30:13;47.50;;;13.70;;
10244;SDS011;5167;52.164;10.530;2023-02-15T01:32:39;51.73;;;13.80;;
10244;SDS011;5167;52.164;10.530;2023-02-15T01:35:05;32.37;;;12.97;;
10244;SDS011;5167;52.164;10.530;2023-02-15T01:37:32;49.60;;;13.37;;
10244;SDS011;5167;52.164;10.530;2023-02-15T01:39:58;55.03;;;14.87;;
10244;SDS011;5167;52.164;10.530;2023-02-15T01:42:25;51.00;;;14.40;;
10244;SDS011;5167;52.164;10.530;2023-02-15T01:47:29;40.53;;;14.13;;
10244;SDS011;5167;52.164;10.530;2023-02-15T01:52:54;51.60;;;13.87;;
10244;SDS011;5167;52.164;10.530;2023-02-15T01:55:24;53.57;;;14.33;;
10244;SDS011;5167;52.164;10.530;2023-02-15T01:57:52;53.60;;;14.93;;
10244;SDS011;5167;52.164;10.530;2023-02-15T02:00:18;58.73;;;14.10;;
10244;SDS011;5167;52.164;10.530;2023-02-15T02:02:45;47.00;;;14.90;;
10244;SDS011;5167;52.164;10.530;2023-02-15T02:05:13;38.43;;;13.83;;
10244;SDS011;5167;52.164;10.530;2023-02-15T02:07:40;39.43;;;13.77;;
10244;SDS011;5167;52.164;10.530;2023-02-15T02:10:09;35.53;;;15.33;;
10244;SDS011;5167;52.164;10.530;2023-02-15T02:12:38;54.57;;;15.23;;
10244;SDS011;5167;52.164;10.530;2023-02-15T02:15:07;39.67;;;15.57;;
10244;SDS011;5167;52.164;10.530;2023-02-15T02:28:46;38.60;;;15.50;;
10244;SDS011;5167;52.164;10.530;2023-02-15T02:31:44;56.03;;;14.40;;
10244;SDS011;5167;52.164;10.530;2023-02-15T02:34:38;45.53;;;14.47;;
10244;SDS011;5167;52.164;10.530;2023-02-15T02:37:19;54.73;;;14.70;;
10244;SDS011;5167;52.164;10.530;2023-02-15T02:42:32;47.53;;;15.67;;
10244;SDS011;5167;52.164;10.530;2023-02-15T02:47:52;40.43;;;15.67;;
10244;SDS011;5167;52.164;10.530;2023-02-15T02:50:29;49.57;;;14.80;;
10244;SDS011;5167;52.164;10.530;2023-02-15T02:52:56;47.50;;;14.53;;
10244;SDS011;5167;52.164;10.530;2023-02-15T02:55:26;41.97;;;15.20;;
10244;SDS011;5167;52.164;10.530;2023-02-15T02:58:10;37.63;;;16.00;;
10244;SDS011;5167;52.164;10.530;2023-02-15T03:03:32;46.80;;;14.87;;
10244;SDS011;5167;52.164;10.530;2023-02-15T03:06:04;47.53;;;15.13;;
10244;SDS011;5167;52.164;10.530;2023-02-15T03:08:37;44.13;;;15.33;;
10244;SDS011;5167;52.164;10.530;2023-02-15T03:11:05;39.07;;;13.40;;
10244;SDS011;5167;52.164;10.530;2023-02-15T03:13:32;48.00;;;13.90;;
10244;SDS011;5167;52.164;10.530;2023-02-15T03:15:58;56.60;;;15.40;;
10244;SDS011;5167;52.164;10.530;2023-02-15T03:18:48;66.70;;;14.53;;
10244;SDS011;5167;52.164;10.530;2023-02-15T03:21:21;54.37;;;12.17;;
10244;SDS011;5167;52.164;10.530;2023-02-15T03:24:12;23.13;;;12.53;;
10244;SDS011;5167;52.164;10.530;2023-02-15T03:26:41;26.50;;;10.60;;
10244;SDS011;5167;52.164;10.530;2023-02-15T03:29:10;58.17;;;13.00;;
10244;SDS011;5167;52.164;10.530;2023-02-15T03:31:38;49.00;;;12.77;;
10244;SDS011;5167;52.164;10.530;2023-02-15T03:34:09;50.13;;;12.80;;
10244;SDS011;5167;52.164;10.530;2023-02-15T03:36:48;30.53;;;10.90;;
10244;SDS011;5167;52.164;10.530;2023-02-15T03:39:31;47.80;;;12.47;;
10244;SDS011;5167;52.164;10.530;2023-02-15T03:42:09;36.97;;;11.97;;
10244;SDS011;5167;52.164;10.530;2023-02-15T03:44:50;29.40;;;12.20;;
10244;SDS011;5167;52.164;10.530;2023-02-15T03:47:23;31.47;;;11.47;;
10244;SDS011;5167;52.164;10.530;2023-02-15T03:50:06;35.70;;;11.83;;
10244;SDS011;5167;52.164;10.530;2023-02-15T03:53:00;37.07;;;12.00;;
10244;SDS011;5167;52.164;10.530;2023-02-15T03:55:29;30.10;;;11.63;;
10244;SDS011;5167;52.164;10.530;2023-02-15T03:57:55;31.03;;;11.43;;
10244;SDS011;5167;52.164;10.530;2023-02-15T04:00:41;33.47;;;11.73;;
10244;SDS011;5167;52.164;10.530;2023-02-15T04:03:33;23.67;;;10.40;;
10244;SDS011;5167;52.164;10.530;2023-02-15T04:06:04;31.90;;;12.53;;
10244;SDS011;5167;52.164;10.530;2023-02-15T04:08:30;42.80;;;12.00;;
10244;SDS011;5167;52.164;10.530;2023-02-15T04:11:14;33.97;;;11.27;;
10244;SDS011;5167;52.164;10.530;2023-02-15T04:13:40;35.63;;;12.60;;
10244;SDS011;5167;52.164;10.530;2023-02-15T04:16:06;27.70;;;12.30;;
10244;SDS011;5167;52.164;10.530;2023-02-15T04:18:33;40.50;;;12.27;;
10244;SDS011;5167;52.164;10.530;2023-02-15T04:21:25;36.57;;;11.93;;
10244;SDS011;5167;52.164;10.530;2023-02-15T04:24:11;24.00;;;11.50;;
10244;SDS011;5167;52.164;10.530;2023-02-15T04:26:55;25.27;;;12.13;;
10244;SDS011;5167;52.164;10.530;2023-02-15T04:29:22;32.10;;;11.47;;
10244;SDS011;5167;52.164;10.530;2023-02-15T04:31:49;29.27;;;11.53;;
10244;SDS011;5167;52.164;10.530;2023-02-15T04:34:15;21.13;;;10.50;;
10244;SDS011;5167;52.164;10.530;2023-02-15T04:36:41;31.73;;;11.33;;
10244;SDS011;5167;52.164;10.530;2023-02-15T04:39:07;27.83;;;11.43;;
10244;SDS011;5167;52.164;10.530;2023-02-15T04:41:34;48.20;;;13.23;;
10244;SDS011;5167;52.164;10.530;2023-02-15T04:44:00;29.07;;;10.80;;
10244;SDS011;5167;52.164;10.530;2023-02-15T04:46:26;24.87;;;10.23;;
10244;SDS011;5167;52.164;10.530;2023-02-15T04:48:52;27.43;;;11.77;;
10244;SDS011;5167;52.164;10.530;2023-02-15T04:51:18;24.33;;;11.70;;
10244;SDS011;5167;52.164;10.530;2023-02-15T04:53:44;24.70;;;11.10;;
10244;SDS011;5167;52.164;10.530;2023-02-15T04:56:09;22.63;;;10.30;;
10244;SDS011;5167;52.164;10.530;2023-02-15T04:58:35;33.97;;;11.50;;
10244;SDS011;5167;52.164;10.530;2023-02-15T05:01:01;39.10;;;11.53;;
10244;SDS011;5167;52.164;10.530;2023-02-15T05:03:27;23.87;;;10.63;;
10244;SDS011;5167;52.164;10.530;2023-02-15T05:05:53;24.00;;;11.27;;
10244;SDS011;5167;52.164;10.530;2023-02-15T05:08:19;21.57;;;11.63;;
10244;SDS011;5167;52.164;10.530;2023-02-15T05:10:44;24.53;;;10.73;;
10244;SDS011;5167;52.164;10.530;2023-02-15T05:13:12;18.57;;;10.77;;
10244;SDS011;5167;52.164;10.530;2023-02-15T05:15:37;22.37;;;11.03;;
10244;SDS011;5167;52.164;10.530;2023-02-15T05:18:03;21.33;;;10.97;;
10244;SDS011;5167;52.164;10.530;2023-02-15T05:20:28;18.87;;;10.57;;
10244;SDS011;5167;52.164;10.530;2023-02-15T05:22:54;17.97;;;10.20;;
10244;SDS011;5167;52.164;10.530;2023-02-15T05:25:20;20.97;;;10.63;;
10244;SDS011;5167;52.164;10.530;2023-02-15T05:28:04;22.47;;;11.00;;
10244;SDS011;5167;52.164;10.530;2023-02-15T05:30:57;19.93;;;10.97;;
10244;SDS011;5167;52.164;10.530;2023-02-15T05:33:39;17.87;;;10.73;;
10244;SDS011;5167;52.164;10.530;2023-02-15T05:36:05;19.60;;;9.93;;
10244;SDS011;5167;52.164;10.530;2023-02-15T05:38:31;18.67;;;10.37;;
10244;SDS011;5167;52.164;10.530;2023-02-15T05:40:57;19.07;;;10.50;;
10244;SDS011;5167;52.164;10.530;2023-02-15T05:43:23;25.47;;;10.97;;
10244;SDS011;5167;52.164;10.530;2023-02-15T05:45:51;16.57;;;9.43;;
10244;SDS011;5167;52.164;10.530;2023-02-15T05:48:18;15.70;;;9.77;;
10244;SDS011;5167;52.164;10.530;2023-02-15T05:50:44;16.13;;;10.43;;
10244;SDS011;5167;52.164;10.530;2023-02-15T05:53:10;19.40;;;10.40;;
10244;SDS011;5167;52.164;10.530;2023-02-15T05:55:40;23.37;;;11.07;;
10244;SDS011;5167;52.164;10.530;2023-02-15T05:58:06;19.83;;;10.13;;
10244;SDS011;5167;52.164;10.530;2023-02-15T06:00:33;23.97;;;11.40;;
10244;SDS011;5167;52.164;10.530;2023-02-15T06:02:58;18.67;;;9.97;;
10244;SDS011;5167;52.164;10.530;2023-02-15T06:05:24;16.90;;;10.17;;
10244;SDS011;5167;52.164;10.530;2023-02-15T06:07:49;18.50;;;11.23;;
10244;SDS011;5167;52.164;10.530;2023-02-15T06:10:15;16.23;;;9.83;;
10244;SDS011;5167;52.164;10.530;2023-02-15T06:12:41;18.43;;;10.83;;
10244;SDS011;5167;52.164;10.530;2023-02-15T06:15:06;18.77;;;10.17;;
10244;SDS011;5167;52.164;10.530;2023-02-15T06:17:32;16.83;;;11.47;;
10244;SDS011;5167;52.164;10.530;2023-02-15T06:19:57;19.73;;;11.50;;
10244;SDS011;5167;52.164;10.530;2023-02-15T06:22:23;20.00;;;10.43;;
10244;SDS011;5167;52.164;10.530;2023-02-15T06:24:48;19.87;;;11.73;;
10244;SDS011;5167;52.164;10.530;2023-02-15T06:27:14;16.73;;;10.37;;
10244;SDS011;5167;52.164;10.530;2023-02-15T06:29:39;18.27;;;10.40;;
10244;SDS011;5167;52.164;10.530;2023-02-15T06:32:05;15.60;;;9.37;;
10244;SDS011;5167;52.164;10.530;2023-02-15T06:34:30;20.60;;;11.27;;
10244;SDS011;5167;52.164;10.530;2023-02-15T06:36:56;17.40;;;10.33;;
10244;SDS011;5167;52.164;10.530;2023-02-15T06:39:22;17.17;;;10.10;;
10244;SDS011;5167;52.164;10.530;2023-02-15T06:41:47;15.97;;;10.47;;
10244;SDS011;5167;52.164;10.530;2023-02-15T06:44:13;16.93;;;10.03;;
10244;SDS011;5167;52.164;10.530;2023-02-15T06:46:38;18.23;;;10.83;;
10244;SDS011;5167;52.164;10.530;2023-02-15T06:49:04;19.33;;;11.33;;
10244;SDS011;5167;52.164;10.530;2023-02-15T06:51:30;25.07;;;11.57;;
10244;SDS011;5167;52.164;10.530;2023-02-15T06:53:55;21.70;;;12.10;;
10244;SDS011;5167;52.164;10.530;2023-02-15T06:56:21;23.33;;;11.20;;
10244;SDS011;5167;52.164;10.530;2023-02-15T06:58:46;18.40;;;11.03;;
10244;SDS011;5167;52.164;10.530;2023-02-15T07:01:14;21.80;;;11.53;;
10244;SDS011;5167;52.164;10.530;2023-02-15T07:03:39;21.60;;;11.93;;
10244;SDS011;5167;52.164;10.530;2023-02-15T07:06:05;20.33;;;11.57;;
10244;SDS011;5167;52.164;10.530;2023-02-15T07:08:33;19.10;;;11.33;;
10244;SDS011;5167;52.164;10.530;2023-02-15T07:10:59;18.90;;;11.30;;
10244;SDS011;5167;52.164;10.530;2023-02-15T07:13:44;16.50;;;10.73;;
10244;SDS011;5167;52.164;10.530;2023-02-15T07:16:09;20.97;;;12.33;;
10244;SDS011;5167;52.164;10.530;2023-02-15T07:18:35;20.47;;;11.70;;
10244;SDS011;5167;52.164;10.530;2023-02-15T07:21:01;21.20;;;11.40;;
10244;SDS011;5167;52.164;10.530;2023-02-15T07:23:27;18.90;;;10.93;;
10244;SDS011;5167;52.164;10.530;2023-02-15T07:25:56;18.37;;;11.33;;
10244;SDS011;5167;52.164;10.530;2023-02-15T07:28:22;20.60;;;11.37;;
10244;SDS011;5167;52.164;10.530;2023-02-15T07:30:48;19.13;;;11.73;;
10244;SDS011;5167;52.164;10.530;2023-02-15T07:33:13;18.90;;;11.43;;
10244;SDS011;5167;52.164;10.530;2023-02-15T07:35:51;21.13;;;11.67;;
10244;SDS011;5167;52.164;10.530;2023-02-15T07:38:19;20.53;;;11.70;;
10244;SDS011;5167;52.164;10.530;2023-02-15T07:40:44;23.00;;;12.97;;
10244;SDS011;5167;52.164;10.530;2023-02-15T07:43:10;18.80;;;11.87;;
10244;SDS011;5167;52.164;10.530;2023-02-15T07:45:36;18.67;;;11.37;;
10244;SDS011;5167;52.164;10.530;2023-02-15T07:48:03;18.77;;;11.50;;
10244;SDS011;5167;52.164;10.530;2023-02-15T07:50:29;19.43;;;11.77;;
10244;SDS011;5167;52.164;10.530;2023-02-15T07:52:55;22.27;;;12.07;;
10244;SDS011;5167;52.164;10.530;2023-02-15T07:55:21;18.13;;;12.00;;
10244;SDS011;5167;52.164;10.530;2023-02-15T07:57:47;18.93;;;11.73;;
10244;SDS011;5167;52.164;10.530;2023-02-15T08:00:15;20.70;;;11.80;;
10244;SDS011;5167;52.164;10.530;2023-02-15T08:02:42;20.90;;;12.23;;
10244;SDS011;5167;52.164;10.530;2023-02-15T08:05:13;18.27;;;10.60;;
10244;SDS011;5167;52.164;10.530;2023-02-15T08:07:39;22.73;;;12.67;;
10244;SDS011;5167;52.164;10.530;2023-02-15T08:10:04;20.53;;;12.23;;
10244;SDS011;5167;52.164;10.530;2023-02-15T08:12:30;23.50;;;11.37;;
10244;SDS011;5167;52.164;10.530;2023-02-15T08:14:56;17.63;;;11.73;;
10244;SDS011;5167;52.164;10.530;2023-02-15T08:17:21;18.30;;;10.73;;
10244;SDS011;5167;52.164;10.530;2023-02-15T08:19:47;20.70;;;11.43;;
10244;SDS011;5167;52.164;10.530;2023-02-15T08:22:13;21.03;;;12.60;;
10244;SDS011;5167;52.164;10.530;2023-02-15T08:24:39;17.80;;;11.23;;
10244;SDS011;5167;52.164;10.530;2023-02-15T08:27:06;21.73;;;12.37;;
10244;SDS011;5167;52.164;10.530;2023-02-15T08:29:34;20.87;;;12.10;;
10244;SDS011;5167;52.164;10.530;2023-02-15T08:32:05;24.43;;;12.00;;
10244;SDS011;5167;52.164;10.530;2023-02-15T08:34:33;18.83;;;10.83;;
10244;SDS011;5167;52.164;10.530;2023-02-15T08:37:00;17.40;;;10.30;;
10244;SDS011;5167;52.164;10.530;2023-02-15T08:39:26;19.27;;;10.93;;
10244;SDS011;5167;52.164;10.530;2023-02-15T08:41:51;18.07;;;11.17;;
10244;SDS011;5167;52.164;10.530;2023-02-15T08:44:18;17.73;;;11.00;;
10244;SDS011;5167;52.164;10.530;2023-02-15T08:46:45;19.73;;;11.67;;
10244;SDS011;5167;52.164;10.530;2023-02-15T08:49:12;19.33;;;11.87;;
10244;SDS011;5167;52.164;10.530;2023-02-15T08:51:40;20.83;;;11.50;;
10244;SDS011;5167;52.164;10.530;2023-02-15T08:54:10;17.60;;;11.20;;
10244;SDS011;5167;52.164;10.530;2023-02-15T08:56:39;19.23;;;11.80;;
10244;SDS011;5167;52.164;10.530;2023-02-15T08:59:06;17.43;;;11.30;;
10244;SDS011;5167;52.164;10.530;2023-02-15T09:01:33;20.70;;;12.30;;
10244;SDS011;5167;52.164;10.530;2023-02-15T09:04:00;19.30;;;11.70;;
10244;SDS011;5167;52.164;10.530;2023-02-15T09:06:27;18.93;;;11.80;;
10244;SDS011;5167;52.164;10.530;2023-02-15T09:08:53;19.27;;;11.57;;
10244;SDS011;5167;52.164;10.530;2023-02-15T09:11:20;17.00;;;10.73;;
10244;SDS011;5167;52.164;10.530;2023-02-15T09:13:49;21.87;;;12.67;;
10244;SDS011;5167;52.164;10.530;2023-02-15T09:16:16;18.90;;;11.67;;
10244;SDS011;5167;52.164;10.530;2023-02-15T09:18:42;17.63;;;10.93;;
10244;SDS011;5167;52.164;10.530;2023-02-15T09:21:12;17.60;;;10.87;;
10244;SDS011;5167;52.164;10.530;2023-02-15T09:23:39;16.13;;;10.43;;
10244;SDS011;5167;52.164;10.530;2023-02-15T09:26:06;16.50;;;10.23;;
10244;SDS011;5167;52.164;10.530;2023-02-15T09:28:36;15.53;;;10.07;;
10244;SDS011;5167;52.164;10.530;2023-02-15T09:31:12;18.43;;;10.60;;
10244;SDS011;5167;52.164;10.530;2023-02-15T09:33:40;16.70;;;10.43;;
10244;SDS011;5167;52.164;10.530;2023-02-15T09:36:14;16.77;;;10.83;;
10244;SDS011;5167;52.164;10.530;2023-02-15T09:38:42;12.73;;;8.47;;
10244;SDS011;5167;52.164;10.530;2023-02-15T10:08:40;14.23;;;9.00;;
10244;SDS011;5167;52.164;10.530;2023-02-15T10:17:24;14.80;;;9.20;;
10244;SDS011;5167;52.164;10.530;2023-02-15T10:23:11;12.93;;;7.83;;
10244;SDS011;5167;52.164;10.530;2023-02-15T10:26:01;11.60;;;8.40;;
10244;SDS011;5167;52.164;10.530;2023-02-15T10:42:56;11.03;;;7.53;;
10244;SDS011;5167;52.164;10.530;2023-02-15T10:48:22;9.53;;;7.00;;
10244;SDS011;5167;52.164;10.530;2023-02-15T10:51:05;11.40;;;7.47;;
10244;SDS011;5167;52.164;10.530;2023-02-15T10:54:02;12.17;;;7.80;;
10244;SDS011;5167;52.164;10.530;2023-02-15T10:57:00;10.77;;;7.57;;
10244;SDS011;5167;52.164;10.530;2023-02-15T11:02:54;9.17;;;6.33;;
10244;SDS011;5167;52.164;10.530;2023-02-15T11:08:28;11.30;;;6.97;;
10244;SDS011;5167;52.164;10.530;2023-02-15T11:10:58;13.93;;;6.63;;
10244;SDS011;5167;52.164;10.530;2023-02-15T11:13:39;9.17;;;6.60;;
10244;SDS011;5167;52.164;10.530;2023-02-15T11:16:14;10.87;;;6.60;;
10244;SDS011;5167;52.164;10.530;2023-02-15T11:18:49;9.80;;;6.07;;
10244;SDS011;5167;52.164;10.530;2023-02-15T11:21:32;10.27;;;6.43;;
10244;SDS011;5167;52.164;10.530;2023-02-15T11:24:13;7.23;;;5.40;;
10244;SDS011;5167;52.164;10.530;2023-02-15T11:29:25;8.33;;;6.00;;
10244;SDS011;5167;52.164;10.530;2023-02-15T11:32:30;8.83;;;5.83;;
10244;SDS011;5167;52.164;10.530;2023-02-15T11:38:00;8.33;;;5.67;;
10244;SDS011;5167;52.164;10.530;2023-02-15T11:40:51;10.90;;;6.37;;
10244;SDS011;5167;52.164;10.530;2023-02-15T11:43:26;11.07;;;5.70;;
10244;SDS011;5167;52.164;10.530;2023-02-15T11:45:57;11.30;;;6.32;;
10244;SDS011;5167;52.164;10.530;2023-02-15T11:48:23;9.48;;;5.70;;
10244;SDS011;5167;52.164;10.530;2023-02-15T11:50:49;9.55;;;5.90;;
10244;SDS011;5167;52.164;10.530;2023-02-15T11:53:18;11.48;;;5.78;;
10244;SDS011;5167;52.164;10.530;2023-02-15T11:55:54;11.80;;;6.25;;
10244;SDS011;5167;52.164;10.530;2023-02-15T11:58:35;8.02;;;5.00;;
10244;SDS011;5167;52.164;10.530;2023-02-15T12:01:50;5.65;;;3.95;;
10244;SDS011;5167;52.164;10.530;2023-02-15T12:04:01;5.65;;;4.00;;
10244;SDS011;5167;52.164;10.530;2023-02-15T12:06:34;7.40;;;4.38;;
10244;SDS011;5167;52.164;10.530;2023-02-15T12:11:48;9.35;;;4.70;;
10244;SDS011;5167;52.164;10.530;2023-02-15T12:14:13;8.15;;;4.22;;
10244;SDS011;5167;52.164;10.530;2023-02-15T12:16:51;13.85;;;4.47;;
10244;SDS011;5167;52.164;10.530;2023-02-15T12:19:26;10.88;;;4.57;;
10244;SDS011;5167;52.164;10.530;2023-02-15T12:21:59;9.15;;;4.35;;
10244;SDS011;5167;52.164;10.530;2023-02-15T12:24:28;8.52;;;4.82;;
10244;SDS011;5167;52.164;10.530;2023-02-15T12:27:20;6.72;;;4.32;;
10244;SDS011;5167;52.164;10.530;2023-02-15T12:29:51;9.98;;;4.65;;
10244;SDS011;5167;52.164;10.530;2023-02-15T12:32:24;10.05;;;4.40;;
10244;SDS011;5167;52.164;10.530;2023-02-15T12:35:13;9.05;;;4.63;;
10244;SDS011;5167;52.164;10.530;2023-02-15T12:37:50;10.20;;;4.53;;
10244;SDS011;5167;52.164;10.530;2023-02-15T12:40:26;8.20;;;5.32;;
10244;SDS011;5167;52.164;10.530;2023-02-15T12:42:55;11.30;;;5.10;;
10244;SDS011;5167;52.164;10.530;2023-02-15T12:45:22;8.38;;;4.90;;
10244;SDS011;5167;52.164;10.530;2023-02-15T12:47:53;6.50;;;4.47;;
10244;SDS011;5167;52.164;10.530;2023-02-15T12:50:34;8.15;;;4.75;;
10244;SDS011;5167;52.164;10.530;2023-02-15T12:53:07;14.52;;;7.20;;
10244;SDS011;5167;52.164;10.530;2023-02-15T12:55:53;18.38;;;8.55;;
10244;SDS011;5167;52.164;10.530;2023-02-15T12:58:21;20.63;;;9.50;;
10244;SDS011;5167;52.164;10.530;2023-02-15T13:03:34;15.07;;;7.15;;
10244;SDS011;5167;52.164;10.530;2023-02-15T13:06:02;9.73;;;6.15;;
10244;SDS011;5167;52.164;10.530;2023-02-15T13:08:33;9.27;;;5.05;;
10244;SDS011;5167;52.164;10.530;2023-02-15T13:11:05;15.00;;;6.47;;
10244;SDS011;5167;52.164;10.530;2023-02-15T13:13:35;14.98;;;7.95;;
10244;SDS011;5167;52.164;10.530;2023-02-15T13:16:27;20.60;;;10.00;;
10244;SDS011;5167;52.164;10.530;2023-02-15T13:19:10;17.13;;;8.43;;
10244;SDS011;5167;52.164;10.530;2023-02-15T13:21:40;17.77;;;8.77;;
10244;SDS011;5167;52.164;10.530;2023-02-15T13:24:17;13.80;;;6.72;;
10244;SDS011;5167;52.164;10.530;2023-02-15T13:26:48;13.35;;;6.57;;
10244;SDS011;5167;52.164;10.530;2023-02-15T13:29:21;12.75;;;6.45;;
10244;SDS011;5167;52.164;10.530;2023-02-15T13:31:48;12.82;;;5.80;;
10244;SDS011;5167;52.164;10.530;2023-02-15T13:34:17;9.63;;;5.80;;
10244;SDS011;5167;52.164;10.530;2023-02-15T13:37:08;9.32;;;5.35;;
10244;SDS011;5167;52.164;10.530;2023-02-15T13:42:20;11.85;;;6.07;;
10244;SDS011;5167;52.164;10.530;2023-02-15T13:44:57;11.00;;;6.43;;
10244;SDS011;5167;52.164;10.530;2023-02-15T13:56:02;10.27;;;6.23;;
10244;SDS011;5167;52.164;10.530;2023-02-15T14:01:40;8.63;;;5.55;;
10244;SDS011;5167;52.164;10.530;2023-02-15T14:07:30;10.90;;;5.87;;
10244;SDS011;5167;52.164;10.530;2023-02-15T14:10:29;7.20;;;5.20;;
10244;SDS011;5167;52.164;10.530;2023-02-15T14:21:23;13.70;;;7.00;;
10244;SDS011;5167;52.164;10.530;2023-02-15T14:29:46;14.00;;;6.18;;
10244;SDS011;5167;52.164;10.530;2023-02-15T14:32:26;11.77;;;5.72;;
10244;SDS011;5167;52.164;10.530;2023-02-15T14:34:58;10.70;;;6.10;;
10244;SDS011;5167;52.164;10.530;2023-02-15T14:37:31;10.07;;;6.47;;
10244;SDS011;5167;52.164;10.530;2023-02-15T14:40:32;7.90;;;5.73;;
10244;SDS011;5167;52.164;10.530;2023-02-15T14:46:41;9.90;;;5.97;;
10244;SDS011;5167;52.164;10.530;2023-02-15T14:49:11;11.32;;;6.55;;
10244;SDS011;5167;52.164;10.530;2023-02-15T14:54:08;12.77;;;5.75;;
10244;SDS011;5167;52.164;10.530;2023-02-15T14:56:34;8.77;;;5.28;;
10244;SDS011;5167;52.164;10.530;2023-02-15T14:59:11;12.40;;;6.43;;
10244;SDS011;5167;52.164;10.530;2023-02-15T15:01:50;9.37;;;4.70;;
10244;SDS011;5167;52.164;10.530;2023-02-15T15:04:24;8.60;;;5.13;;
10244;SDS011;5167;52.164;10.530;2023-02-15T15:07:08;9.97;;;5.27;;
10244;SDS011;5167;52.164;10.530;2023-02-15T15:09:35;8.57;;;5.60;;
10244;SDS011;5167;52.164;10.530;2023-02-15T15:14:50;10.67;;;5.97;;
10244;SDS011;5167;52.164;10.530;2023-02-15T15:20:00;7.93;;;5.30;;
10244;SDS011;5167;52.164;10.530;2023-02-15T15:22:48;9.40;;;6.07;;
10244;SDS011;5167;52.164;10.530;2023-02-15T15:28:02;10.80;;;6.03;;
10244;SDS011;5167;52.164;10.530;2023-02-15T15:39:21;9.63;;;5.37;;
10244;SDS011;5167;52.164;10.530;2023-02-15T15:41:17;12.07;;;6.17;;
10244;SDS011;5167;52.164;10.530;2023-02-15T15:44:16;13.13;;;6.70;;
10244;SDS011;5167;52.164;10.530;2023-02-15T15:47:13;11.27;;;6.00;;
10244;SDS011;5167;52.164;10.530;2023-02-15T15:49:47;14.40;;;6.37;;
10244;SDS011;5167;52.164;10.530;2023-02-15T15:52:16;14.20;;;6.97;;
10244;SDS011;5167;52.164;10.530;2023-02-15T15:54:44;11.57;;;6.40;;
10244;SDS011;5167;52.164;10.530;2023-02-15T15:57:15;11.73;;;6.33;;
10244;SDS011;5167;52.164;10.530;2023-02-15T15:59:45;18.93;;;6.43;;
10244;SDS011;5167;52.164;10.530;2023-02-15T16:02:13;12.93;;;7.10;;
10244;SDS011;5167;52.164;10.530;2023-02-15T16:04:41;11.17;;;5.60;;
10244;SDS011;5167;52.164;10.530;2023-02-15T16:09:41;14.63;;;6.80;;
10244;SDS011;5167;52.164;10.530;2023-02-15T16:12:45;10.80;;;6.87;;
10244;SDS011;5167;52.164;10.530;2023-02-15T16:15:14;16.30;;;7.27;;
10244;SDS011;5167;52.164;10.530;2023-02-15T16:17:45;15.17;;;7.23;;
10244;SDS011;5167;52.164;10.530;2023-02-15T16:20:15;14.67;;;7.60;;
10244;SDS011;5167;52.164;10.530;2023-02-15T16:22:44;9.60;;;6.30;;
10244;SDS011;5167;52.164;10.530;2023-02-15T16:27:46;13.33;;;7.10;;
10244;SDS011;5167;52.164;10.530;2023-02-15T16:30:20;13.50;;;6.93;;
10244;SDS011;5167;52.164;10.530;2023-02-15T16:32:55;14.00;;;7.03;;
10244;SDS011;5167;52.164;10.530;2023-02-15T16:35:35;10.00;;;6.37;;
10244;SDS011;5167;52.164;10.530;2023-02-15T16:38:02;12.43;;;6.30;;
10244;SDS011;5167;52.164;10.530;2023-02-15T16:40:33;11.83;;;6.90;;
10244;SDS011;5167;52.164;10.530;2023-02-15T16:43:24;12.93;;;6.73;;
10244;SDS011;5167;52.164;10.530;2023-02-15T16:45:51;10.27;;;6.90;;
10244;SDS011;5167;52.164;10.530;2023-02-15T16:48:27;11.03;;;6.47;;
10244;SDS011;5167;52.164;10.530;2023-02-15T16:50:56;16.00;;;6.17;;
10244;SDS011;5167;52.164;10.530;2023-02-15T16:53:24;10.37;;;6.50;;
10244;SDS011;5167;52.164;10.530;2023-02-15T16:55:55;13.90;;;7.63;;
10244;SDS011;5167;52.164;10.530;2023-02-15T16:58:36;12.80;;;6.47;;
10244;SDS011;5167;52.164;10.530;2023-02-15T17:01:06;11.07;;;6.70;;
10244;SDS011;5167;52.164;10.530;2023-02-15T17:03:34;11.87;;;7.30;;
10244;SDS011;5167;52.164;10.530;2023-02-15T17:06:01;12.33;;;7.23;;
10244;SDS011;5167;52.164;10.530;2023-02-15T17:08:34;12.33;;;7.50;;
10244;SDS011;5167;52.164;10.530;2023-02-15T17:13:36;13.90;;;8.13;;
10244;SDS011;5167;52.164;10.530;2023-02-15T17:18:29;13.60;;;7.77;;
10244;SDS011;5167;52.164;10.530;2023-02-15T17:20:56;13.23;;;7.17;;
10244;SDS011;5167;52.164;10.530;2023-02-15T17:23:36;10.73;;;7.10;;
10244;SDS011;5167;52.164;10.530;2023-02-15T17:26:11;15.30;;;7.23;;
10244;SDS011;5167;52.164;10.530;2023-02-15T17:28:49;10.90;;;7.33;;
10244;SDS011;5167;52.164;10.530;2023-02-15T17:31:29;11.87;;;6.90;;
10244;SDS011;5167;52.164;10.530;2023-02-15T17:33:57;13.93;;;7.67;;